Time;durP1;ratioP1;P1;durP2;ratioP2;P2;SDS_P1;SDS_P2;PMS_P1;PMS_P2;Temp;Humidity;BMP_temperature;BMP_pressure;BME280_temperature;BME280_humidity;BME280_pressure;Samples;Min_cycle;Max_cycle;Signal;HPM_P1;HPM_P2
2023/02/18 00:01:07;;;;;;;10.77;8.75;;;11.60;1.00;;;;;;5113829;28;20529;-59
2023/02/18 00:10:17;;;;;;;9.32;8.32;;;11.60;1.00;;;;;;5107397;28;20069;-58
2023/02/18 00:12:43;;;;;;;9.95;7.85;;;11.80;1.00;;;;;;5113247;28;20067;-58
2023/02/18 00:15:09;;;;;;;11.15;8.00;;;11.60;1.00;;;;;;5103406;28;20024;-58
2023/02/18 00:17:35;;;;;;;10.15;8.65;;;11.70;1.00;;;;;;5109589;28;20023;-58
2023/02/18 00:26:44;;;;;;;11.98;8.20;;;11.50;1.00;;;;;;5097503;28;20031;-58
2023/02/18 00:29:10;;;;;;;9.38;7.80;;;11.50;1.00;;;;;;5112710;28;20112;-58
2023/02/18 00:31:38;;;;;;;13.10;9.20;;;11.60;1.00;;;;;;5111424;28;20052;-58
2023/02/18 00:34:04;;;;;;;12.43;8.45;;;11.50;1.00;;;;;;5112899;28;20057;-58
2023/02/18 00:36:30;;;;;;;9.38;8.10;;;11.60;1.00;;;;;;5112797;28;20098;-59
2023/02/18 00:38:59;;;;;;;10.05;8.55;;;11.40;1.00;;;;;;5112702;28;20047;-58
2023/02/18 00:41:27;;;;;;;12.77;9.27;;;11.50;1.00;;;;;;5113898;27;20032;-58
2023/02/18 00:43:53;;;;;;;10.48;8.10;;;11.30;1.00;;;;;;5124965;27;20252;-58
2023/02/18 00:46:20;;;;;;;8.68;7.75;;;11.40;1.00;;;;;;5111048;28;20110;-58
2023/02/18 00:48:45;;;;;;;8.68;7.78;;;11.40;1.00;;;;;;5112461;28;20129;-58
2023/02/18 00:51:11;;;;;;;9.57;7.72;;;11.40;1.00;;;;;;5112486;28;20012;-58
2023/02/18 00:53:38;;;;;;;8.48;7.60;;;11.50;1.00;;;;;;5112410;28;20224;-57
2023/02/18 00:56:04;;;;;;;10.65;8.00;;;11.60;1.00;;;;;;5112373;28;20042;-58
2023/02/18 00:58:31;;;;;;;9.25;7.65;;;11.40;1.00;;;;;;5112650;28;20058;-58
2023/02/18 01:00:56;;;;;;;9.95;7.68;;;11.50;1.00;;;;;;5112374;28;20039;-58
2023/02/18 01:03:23;;;;;;;9.48;7.65;;;11.50;1.00;;;;;;5112232;28;20473;-58
2023/02/18 01:05:49;;;;;;;12.98;8.55;;;11.60;1.00;;;;;;5106222;28;20020;-58
2023/02/18 01:08:17;;;;;;;10.35;7.53;;;11.40;1.00;;;;;;5101508;28;20085;-58
2023/02/18 01:10:45;;;;;;;8.68;7.47;;;11.50;1.00;;;;;;5111213;28;20111;-59
2023/02/18 01:13:12;;;;;;;8.85;7.95;;;11.40;1.00;;;;;;5112120;28;20102;-58
2023/02/18 01:15:39;;;;;;;9.75;7.90;;;11.50;1.00;;;;;;5097871;28;20407;-59
2023/02/18 01:18:06;;;;;;;11.07;8.38;;;11.50;1.00;;;;;;5112217;28;20039;-59
2023/02/18 01:20:33;;;;;;;9.15;7.78;;;11.40;1.00;;;;;;5110725;28;20011;-58
2023/02/18 01:22:58;;;;;;;10.98;8.13;;;11.20;1.00;;;;;;5111938;28;20026;-58
2023/02/18 01:25:25;;;;;;;10.88;8.25;;;11.30;1.00;;;;;;5111996;28;20200;-58
2023/02/18 01:27:51;;;;;;;10.82;7.65;;;11.30;1.00;;;;;;5112189;28;20054;-58
2023/02/18 01:30:17;;;;;;;9.90;8.82;;;11.30;1.00;;;;;;5112283;28;20076;-58
2023/02/18 01:32:44;;;;;;;12.35;8.30;;;11.30;1.00;;;;;;5112086;28;20031;-58
2023/02/18 01:35:13;;;;;;;8.43;7.53;;;11.30;1.00;;;;;;5112033;28;20043;-58
2023/02/18 01:44:25;;;;;;;9.18;8.27;;;11.20;1.00;;;;;;5098800;28;20418;-59
2023/02/18 01:46:51;;;;;;;11.35;8.43;;;11.20;1.00;;;;;;5111772;28;20147;-58
2023/02/18 01:49:27;;;;;;;10.52;8.57;;;11.30;1.00;;;;;;5111777;28;20020;-58
2023/02/18 01:52:10;;;;;;;9.15;7.75;;;11.20;1.00;;;;;;5111812;28;20141;-58
2023/02/18 01:54:40;;;;;;;9.55;8.00;;;11.30;1.00;;;;;;5111453;28;20042;-58
2023/02/18 01:57:06;;;;;;;11.27;8.68;;;11.30;1.00;;;;;;5111617;28;20023;-59
2023/02/18 01:59:37;;;;;;;10.45;8.40;;;11.30;1.00;;;;;;5110355;28;20031;-59
2023/02/18 02:02:05;;;;;;;11.30;8.23;;;11.30;1.00;;;;;;5111941;28;20086;-58
2023/02/18 02:04:32;;;;;;;10.68;8.88;;;11.10;1.00;;;;;;5111639;28;20019;-58
2023/02/18 02:06:58;;;;;;;10.15;9.05;;;11.20;1.00;;;;;;5111605;28;20035;-58
2023/02/18 02:09:27;;;;;;;12.07;8.52;;;11.30;1.00;;;;;;5111821;28;20023;-58
2023/02/18 02:12:12;;;;;;;12.52;8.75;;;11.20;1.00;;;;;;5109394;28;20114;-57
2023/02/18 02:14:58;;;;;;;10.13;8.73;;;11.30;1.00;;;;;;5110819;28;20303;-58
2023/02/18 02:17:48;;;;;;;11.25;9.52;;;11.30;1.00;;;;;;5110232;28;20499;-59
2023/02/18 02:20:17;;;;;;;10.65;8.48;;;11.40;1.00;;;;;;5110160;28;20027;-58
2023/02/18 02:22:55;;;;;;;10.27;8.70;;;11.40;1.00;;;;;;5101021;28;20024;-58
2023/02/18 02:25:23;;;;;;;11.90;9.23;;;11.40;1.00;;;;;;5115411;28;20032;-58
2023/02/18 02:28:28;;;;;;;12.00;9.57;;;11.30;1.00;;;;;;5115491;28;20066;-57
2023/02/18 02:31:05;;;;;;;10.32;9.02;;;11.20;1.00;;;;;;5100273;28;20031;-58
2023/02/18 02:33:58;;;;;;;13.20;9.43;;;11.20;1.00;;;;;;5099602;28;20027;-58
2023/02/18 02:36:33;;;;;;;11.30;9.20;;;11.30;1.00;;;;;;5115212;28;20051;-59
2023/02/18 02:38:59;;;;;;;11.93;10.55;;;11.10;1.00;;;;;;5113670;28;20366;-58
2023/02/18 02:41:42;;;;;;;10.48;9.05;;;11.20;1.00;;;;;;5115312;28;20031;-58
2023/02/18 02:48:19;;;;;;;11.13;9.18;;;11.30;1.00;;;;;;5091453;28;20050;-58
2023/02/18 02:50:56;;;;;;;15.38;10.02;;;11.20;1.00;;;;;;5000497;28;20041;-58
2023/02/18 02:53:27;;;;;;;13.35;10.40;;;11.30;1.00;;;;;;5099983;28;20369;-57
2023/02/18 02:55:54;;;;;;;11.68;9.15;;;11.30;1.00;;;;;;5114834;28;20026;-58
2023/02/18 02:58:21;;;;;;;11.65;9.50;;;11.30;1.00;;;;;;5114807;28;20103;-57
2023/02/18 03:01:19;;;;;;;12.32;10.00;;;11.30;1.00;;;;;;5114784;28;20028;-58
2023/02/18 03:04:00;;;;;;;10.35;9.25;;;11.30;1.00;;;;;;5114654;28;20035;-58
2023/02/18 03:06:42;;;;;;;11.05;9.80;;;11.30;1.00;;;;;;5114725;28;20110;-58
2023/02/18 03:09:39;;;;;;;13.10;9.82;;;11.30;1.00;;;;;;5114408;28;20019;-58
2023/02/18 03:12:36;;;;;;;11.82;9.32;;;11.30;1.00;;;;;;5114892;28;20027;-57
2023/02/18 03:18:38;;;;;;;10.50;9.50;;;11.30;1.00;;;;;;5093792;28;20031;-59
2023/02/18 03:21:14;;;;;;;12.85;10.07;;;11.30;1.00;;;;;;5112730;28;20030;-58
2023/02/18 03:24:04;;;;;;;14.25;11.10;;;11.20;1.00;;;;;;5114295;28;20020;-58
2023/02/18 03:26:33;;;;;;;13.25;10.43;;;11.20;1.00;;;;;;5114269;28;20012;-59
2023/02/18 03:29:02;;;;;;;13.57;8.88;;;11.30;1.00;;;;;;5114460;28;20027;-58
2023/02/18 03:31:30;;;;;;;13.07;10.30;;;11.20;1.00;;;;;;5114159;27;20016;-57
2023/02/18 03:34:02;;;;;;;12.55;10.27;;;11.20;1.00;;;;;;5113130;28;20039;-58
2023/02/18 03:36:30;;;;;;;12.35;10.07;;;11.20;1.00;;;;;;5112582;28;20096;-57
2023/02/18 03:39:09;;;;;;;10.07;8.88;;;11.20;1.00;;;;;;5113794;27;20066;-58
2023/02/18 03:41:35;;;;;;;14.23;9.40;;;11.30;1.00;;;;;;5114216;28;20031;-58
2023/02/18 03:44:06;;;;;;;10.93;9.75;;;11.20;1.00;;;;;;5114221;28;20024;-58
2023/02/18 03:46:34;;;;;;;13.20;9.77;;;11.20;1.00;;;;;;5113578;28;20436;-58
2023/02/18 03:49:00;;;;;;;11.63;9.48;;;11.20;1.00;;;;;;5099860;28;20024;-57
2023/02/18 03:51:25;;;;;;;11.15;9.52;;;11.20;1.00;;;;;;5094501;28;20031;-58
2023/02/18 03:53:51;;;;;;;13.13;9.07;;;11.10;1.00;;;;;;5110771;28;20039;-58
2023/02/18 03:56:18;;;;;;;12.50;10.15;;;11.10;1.00;;;;;;5102522;28;20056;-58
2023/02/18 03:58:44;;;;;;;12.57;9.70;;;11.00;1.00;;;;;;5112245;28;20106;-58
2023/02/18 04:01:10;;;;;;;11.68;10.40;;;11.10;1.00;;;;;;5113611;28;20112;-59
2023/02/18 04:03:35;;;;;;;11.95;9.65;;;11.20;1.00;;;;;;5113505;28;20156;-58
2023/02/18 04:06:01;;;;;;;12.60;10.20;;;11.10;1.00;;;;;;5113752;28;20023;-58
2023/02/18 04:08:27;;;;;;;11.85;10.13;;;11.10;1.00;;;;;;5113198;28;20050;-58
2023/02/18 04:10:52;;;;;;;12.57;10.32;;;11.20;1.00;;;;;;5113645;28;20024;-58
2023/02/18 04:13:18;;;;;;;14.55;10.55;;;11.20;1.00;;;;;;5113356;28;20048;-58
2023/02/18 04:15:44;;;;;;;12.35;10.00;;;11.20;1.00;;;;;;5113128;28;20491;-59
2023/02/18 04:18:10;;;;;;;11.88;10.38;;;11.20;1.00;;;;;;5113148;28;20027;-58
2023/02/18 04:20:36;;;;;;;15.63;10.80;;;11.20;1.00;;;;;;5113079;28;20413;-58
2023/02/18 04:23:03;;;;;;;11.77;9.95;;;11.20;1.00;;;;;;5113327;28;20141;-58
2023/02/18 04:25:29;;;;;;;12.88;10.40;;;11.20;1.00;;;;;;5113088;28;20030;-58
2023/02/18 04:27:55;;;;;;;11.65;10.18;;;11.20;1.00;;;;;;5113364;28;20335;-58
2023/02/18 04:30:21;;;;;;;12.90;10.50;;;11.20;1.00;;;;;;5113356;28;20054;-58
2023/02/18 04:32:46;;;;;;;14.70;10.52;;;11.20;1.00;;;;;;5111448;28;20122;-58
2023/02/18 04:35:12;;;;;;;12.50;10.63;;;11.20;1.00;;;;;;5113221;28;20031;-58
2023/02/18 04:37:38;;;;;;;11.57;9.70;;;11.20;1.00;;;;;;5112871;28;20032;-58
2023/02/18 04:40:04;;;;;;;13.93;10.20;;;11.20;1.00;;;;;;5112816;28;20016;-58
2023/02/18 04:42:30;;;;;;;13.93;9.95;;;11.20;1.00;;;;;;5112852;28;20023;-58
2023/02/18 04:44:56;;;;;;;14.88;10.27;;;11.20;1.00;;;;;;5112785;28;20027;-58
2023/02/18 04:47:27;;;;;;;14.57;10.88;;;11.20;1.00;;;;;;5112708;28;20047;-59
2023/02/18 04:49:53;;;;;;;14.45;10.52;;;11.20;1.00;;;;;;5112962;28;20390;-59
2023/02/18 04:52:19;;;;;;;15.65;11.05;;;11.20;1.00;;;;;;5112777;28;20047;-58
2023/02/18 04:54:45;;;;;;;14.48;10.23;;;11.20;1.00;;;;;;5110868;28;20038;-56
2023/02/18 04:57:10;;;;;;;15.32;11.52;;;11.30;1.00;;;;;;5111875;27;20019;-58
2023/02/18 04:59:36;;;;;;;14.07;11.20;;;11.20;1.00;;;;;;5112361;27;20384;-58
2023/02/18 05:02:02;;;;;;;16.33;11.23;;;11.20;1.00;;;;;;5092394;28;20028;-58
2023/02/18 05:04:28;;;;;;;16.35;11.23;;;11.20;1.00;;;;;;5102830;28;20112;-57
2023/02/18 05:06:53;;;;;;;12.40;10.85;;;11.20;1.00;;;;;;5110914;28;20111;-58
2023/02/18 05:09:19;;;;;;;16.55;12.13;;;11.20;1.00;;;;;;5104648;28;20088;-55
2023/02/18 05:11:46;;;;;;;18.92;11.68;;;11.20;1.00;;;;;;5112136;28;20214;-58
2023/02/18 05:14:13;;;;;;;13.77;12.13;;;11.30;1.00;;;;;;5112538;28;20047;-59
2023/02/18 05:16:48;;;;;;;15.73;10.95;;;11.20;1.00;;;;;;5099897;28;20472;-59
2023/02/18 05:19:15;;;;;;;15.25;12.23;;;11.20;1.00;;;;;;5112254;28;20147;-59
2023/02/18 05:21:41;;;;;;;14.57;11.27;;;11.10;1.00;;;;;;5110836;28;20544;-58
2023/02/18 05:24:07;;;;;;;14.95;12.00;;;11.10;1.00;;;;;;5112007;28;20050;-58
2023/02/18 05:26:33;;;;;;;14.88;13.02;;;11.10;1.00;;;;;;5112156;28;20053;-58
2023/02/18 05:28:58;;;;;;;21.13;13.10;;;11.00;1.00;;;;;;5111944;28;20019;-58
2023/02/18 05:31:37;;;;;;;17.13;13.68;;;11.00;1.00;;;;;;5112150;28;20110;-58
2023/02/18 05:34:03;;;;;;;15.40;12.60;;;10.90;1.00;;;;;;5111791;28;20051;-58
2023/02/18 05:36:29;;;;;;;17.73;13.10;;;10.80;1.00;;;;;;5111812;28;20491;-58
2023/02/18 05:38:55;;;;;;;16.73;13.10;;;10.80;1.00;;;;;;5111905;28;20027;-57
2023/02/18 05:41:21;;;;;;;15.23;12.80;;;10.90;1.00;;;;;;5112235;28;20106;-58
2023/02/18 05:46:30;;;;;;;18.83;13.60;;;10.80;1.00;;;;;;5111866;28;20100;-58
2023/02/18 05:48:56;;;;;;;17.25;12.93;;;10.90;1.00;;;;;;5112166;28;20067;-58
2023/02/18 05:51:22;;;;;;;18.08;13.23;;;10.80;1.00;;;;;;5112293;28;20020;-58
2023/02/18 05:53:47;;;;;;;19.35;14.40;;;10.90;1.00;;;;;;5111929;28;20362;-58
2023/02/18 05:56:13;;;;;;;17.85;14.23;;;10.80;1.00;;;;;;5111668;28;20357;-57
2023/02/18 05:58:39;;;;;;;19.75;15.13;;;10.80;1.00;;;;;;5116128;28;20038;-58
2023/02/18 06:01:04;;;;;;;22.73;15.82;;;10.70;1.00;;;;;;5116556;28;20070;-58
2023/02/18 06:03:30;;;;;;;18.75;15.10;;;10.70;1.00;;;;;;5115853;28;20023;-57
2023/02/18 06:05:55;;;;;;;25.05;16.33;;;10.70;1.00;;;;;;5115895;28;20098;-57
2023/02/18 06:08:21;;;;;;;20.35;15.20;;;10.60;1.00;;;;;;5115929;28;20104;-58
2023/02/18 06:10:50;;;;;;;20.90;16.08;;;10.60;1.00;;;;;;5116097;28;20107;-58
2023/02/18 06:13:16;;;;;;;18.45;15.07;;;10.40;1.00;;;;;;5116053;28;20039;-57
2023/02/18 06:15:41;;;;;;;20.57;15.63;;;10.50;1.00;;;;;;5115933;28;20481;-58
2023/02/18 06:18:07;;;;;;;18.15;14.73;;;10.50;1.00;;;;;;5114183;28;20386;-59
2023/02/18 06:20:33;;;;;;;21.95;16.50;;;10.50;1.00;;;;;;5114111;28;20020;-59
2023/02/18 06:22:58;;;;;;;18.90;15.37;;;10.50;1.00;;;;;;5114584;28;20093;-58
2023/02/18 06:25:24;;;;;;;19.73;16.25;;;10.40;1.00;;;;;;5115373;28;20073;-58
2023/02/18 06:27:50;;;;;;;19.30;15.93;;;10.40;1.00;;;;;;5115520;28;20073;-58
2023/02/18 06:30:15;;;;;;;21.90;15.38;;;10.30;1.00;;;;;;5115315;28;20035;-59
2023/02/18 06:32:50;;;;;;;17.93;15.57;;;10.30;1.00;;;;;;5113899;28;20024;-59
2023/02/18 06:35:16;;;;;;;;;;;10.30;1.00;;;;;;5115737;28;20034;-58
2023/02/18 06:37:41;;;;;;;24.73;16.52;;;10.20;1.00;;;;;;5115187;28;20007;-58
2023/02/18 06:40:07;;;;;;;25.02;18.10;;;10.20;1.00;;;;;;5115299;28;20047;-58
2023/02/18 06:42:33;;;;;;;19.83;15.95;;;10.10;1.00;;;;;;5109500;28;20028;-58
2023/02/18 06:44:59;;;;;;;19.52;16.15;;;10.20;1.00;;;;;;5095422;28;20027;-58
2023/02/18 06:47:24;;;;;;;22.40;16.85;;;10.20;1.00;;;;;;5103114;28;20052;-59
2023/02/18 06:49:50;;;;;;;21.13;16.42;;;10.10;1.00;;;;;;5112860;28;20388;-59
2023/02/18 06:52:16;;;;;;;24.83;16.80;;;10.00;1.00;;;;;;5100325;28;20032;-57
2023/02/18 06:54:53;;;;;;;21.17;16.50;;;10.10;1.00;;;;;;5115040;28;20124;-59
2023/02/18 06:57:19;;;;;;;22.10;16.40;;;10.20;1.00;;;;;;5107402;28;20039;-59
2023/02/18 06:59:44;;;;;;;18.83;15.87;;;10.20;1.00;;;;;;5114914;28;20028;-58
2023/02/18 07:02:12;;;;;;;20.73;16.45;;;10.20;1.00;;;;;;5115318;28;20024;-58
2023/02/18 07:04:37;;;;;;;22.30;16.63;;;10.20;1.00;;;;;;5115310;28;20378;-58
2023/02/18 07:07:03;;;;;;;21.33;17.30;;;10.30;1.00;;;;;;5114758;28;20045;-58
2023/02/18 07:09:29;;;;;;;22.13;16.65;;;10.30;1.00;;;;;;5113856;28;20019;-58
2023/02/18 07:11:54;;;;;;;21.85;17.08;;;10.30;1.00;;;;;;5113243;28;20011;-58
2023/02/18 07:14:20;;;;;;;22.13;16.70;;;10.30;1.00;;;;;;5096457;28;20036;-59
2023/02/18 07:16:46;;;;;;;19.60;16.27;;;10.30;1.00;;;;;;5114692;28;20020;-56
2023/02/18 07:19:11;;;;;;;21.17;15.83;;;10.40;1.00;;;;;;5114815;28;20020;-59
2023/02/18 07:21:37;;;;;;;20.23;16.80;;;10.30;1.00;;;;;;5114540;28;20065;-58
2023/02/18 07:24:03;;;;;;;22.83;17.10;;;10.30;1.00;;;;;;5114635;28;20027;-58
2023/02/18 07:26:28;;;;;;;27.03;16.87;;;10.40;1.00;;;;;;5114433;28;20107;-58
2023/02/18 07:28:54;;;;;;;22.85;17.20;;;10.40;1.00;;;;;;5114683;28;20023;-63
2023/02/18 07:31:19;;;;;;;20.67;15.70;;;10.20;1.00;;;;;;5114576;28;20027;-59
2023/02/18 07:33:45;;;;;;;20.95;16.85;;;10.30;1.00;;;;;;5114117;28;20111;-59
2023/02/18 07:36:10;;;;;;;25.55;18.33;;;10.20;1.00;;;;;;5114115;28;20468;-59
2023/02/18 07:38:36;;;;;;;24.52;18.70;;;10.20;1.00;;;;;;5112650;28;20030;-58
2023/02/18 07:41:02;;;;;;;21.02;16.90;;;10.40;1.00;;;;;;5113955;28;20007;-58
2023/02/18 07:43:28;;;;;;;21.73;17.40;;;10.40;1.00;;;;;;5114221;28;20072;-58
2023/02/18 07:45:53;;;;;;;23.02;17.98;;;10.40;1.00;;;;;;5113981;28;20024;-56
2023/02/18 07:48:19;;;;;;;22.23;18.65;;;10.40;1.00;;;;;;5110328;28;20048;-57
2023/02/18 07:50:46;;;;;;;26.30;19.90;;;10.30;1.00;;;;;;5109930;28;20024;-58
2023/02/18 07:53:13;;;;;;;26.15;18.52;;;10.40;1.00;;;;;;5113709;28;20095;-58
2023/02/18 07:55:48;;;;;;;22.20;19.20;;;10.40;1.00;;;;;;5100410;28;20069;-57
2023/02/18 07:58:16;;;;;;;22.33;18.63;;;10.40;1.00;;;;;;5110238;28;20038;-57
2023/02/18 08:00:41;;;;;;;28.95;18.15;;;10.40;1.00;;;;;;5113755;28;20015;-58
2023/02/18 08:03:07;;;;;;;26.20;18.20;;;10.40;1.00;;;;;;5113577;28;20161;-57
2023/02/18 08:05:32;;;;;;;22.45;16.70;;;10.50;1.00;;;;;;5113716;28;20027;-58
2023/02/18 08:07:58;;;;;;;24.17;18.00;;;10.50;1.00;;;;;;5113411;28;20483;-57
2023/02/18 08:10:24;;;;;;;23.95;18.70;;;10.60;1.00;;;;;;5109481;28;20027;-57
2023/02/18 08:12:49;;;;;;;24.52;19.05;;;10.50;1.00;;;;;;5101351;28;20498;-58
2023/02/18 08:15:15;;;;;;;21.77;17.77;;;10.60;1.00;;;;;;5113222;28;20039;-59
2023/02/18 08:17:41;;;;;;;27.08;18.60;;;10.70;1.00;;;;;;5113839;28;20465;-57
2023/02/18 08:20:06;;;;;;;23.20;18.65;;;10.70;1.00;;;;;;5111656;28;20035;-57
2023/02/18 08:22:32;;;;;;;26.95;20.38;;;10.70;1.00;;;;;;5092964;28;20067;-58
2023/02/18 08:24:58;;;;;;;24.35;19.23;;;10.70;1.00;;;;;;5106089;28;20525;-57
2023/02/18 08:27:24;;;;;;;25.60;19.75;;;10.80;1.00;;;;;;5111749;28;20123;-58
2023/02/18 08:29:49;;;;;;;23.80;18.77;;;10.80;1.00;;;;;;5112897;28;20518;-58
2023/02/18 08:32:15;;;;;;;24.08;19.65;;;10.90;1.00;;;;;;5113497;28;20051;-57
2023/02/18 08:34:40;;;;;;;26.53;20.13;;;10.90;1.00;;;;;;5112779;28;20040;-56
2023/02/18 08:37:06;;;;;;;27.13;21.17;;;11.00;1.00;;;;;;5113035;28;20031;-57
2023/02/18 08:39:36;;;;;;;27.13;21.10;;;11.00;1.00;;;;;;5112808;28;20384;-58
2023/02/18 08:42:01;;;;;;;26.92;20.55;;;11.00;1.00;;;;;;5112705;28;20511;-61
2023/02/18 08:44:27;;;;;;;25.90;20.45;;;10.90;1.00;;;;;;5112732;28;20023;-58
2023/02/18 08:46:53;;;;;;;27.95;22.00;;;10.90;1.00;;;;;;5122694;27;20028;-56
2023/02/18 08:49:23;;;;;;;25.10;20.23;;;10.90;1.00;;;;;;5113147;28;20035;-55
2023/02/18 08:51:49;;;;;;;28.52;21.83;;;11.00;1.00;;;;;;5108685;28;20334;-57
2023/02/18 08:54:15;;;;;;;31.42;22.58;;;10.80;1.00;;;;;;5103986;28;20046;-56
2023/02/18 08:56:41;;;;;;;26.73;21.05;;;11.10;1.00;;;;;;5112704;28;20023;-56
2023/02/18 08:59:07;;;;;;;28.30;20.80;;;11.10;1.00;;;;;;5112780;28;20477;-57
2023/02/18 09:01:32;;;;;;;29.23;21.30;;;11.20;1.00;;;;;;5112431;28;20421;-50
2023/02/18 09:03:58;;;;;;;30.85;21.83;;;11.30;1.00;;;;;;5111155;28;20361;-54
2023/02/18 09:06:24;;;;;;;30.50;23.33;;;11.30;1.00;;;;;;5111033;28;20410;-53
2023/02/18 09:08:50;;;;;;;30.17;21.92;;;11.40;1.00;;;;;;5112262;28;20054;-56
2023/02/18 09:11:17;;;;;;;27.02;21.73;;;11.30;1.00;;;;;;5110955;28;20089;-52
2023/02/18 09:13:42;;;;;;;29.58;22.02;;;11.40;1.00;;;;;;5097764;28;20032;-48
2023/02/18 09:16:16;;;;;;;27.58;21.50;;;11.40;1.00;;;;;;5112247;28;20433;-47
2023/02/18 09:18:43;;;;;;;27.35;20.35;;;11.40;1.00;;;;;;5112460;28;20114;-52
2023/02/18 09:21:11;;;;;;;26.75;20.63;;;11.50;1.00;;;;;;5112262;28;20552;-60
2023/02/18 09:23:37;;;;;;;27.58;21.38;;;11.60;1.00;;;;;;5112663;28;20168;-59
2023/02/18 09:26:04;;;;;;;25.23;19.95;;;11.60;1.00;;;;;;5097745;28;20019;-60
2023/02/18 09:28:53;;;;;;;26.40;20.02;;;11.60;1.00;;;;;;5112865;28;20039;-61
2023/02/18 09:31:22;;;;;;;25.95;20.85;;;11.70;1.00;;;;;;5098635;28;20111;-60
2023/02/18 09:33:59;;;;;;;23.17;19.35;;;11.80;1.00;;;;;;5109820;28;20028;-57
2023/02/18 09:36:25;;;;;;;26.30;19.02;;;11.90;1.00;;;;;;5098318;28;20024;-55
2023/02/18 09:38:51;;;;;;;26.08;19.73;;;11.90;1.00;;;;;;5101435;28;20032;-56
2023/02/18 09:41:30;;;;;;;25.80;17.98;;;12.00;1.00;;;;;;5097525;28;20404;-59
2023/02/18 09:44:12;;;;;;;21.60;18.02;;;12.10;1.00;;;;;;5109809;28;20107;-61
2023/02/18 09:46:59;;;;;;;21.80;17.45;;;12.00;1.00;;;;;;5100355;28;20016;-60
2023/02/18 09:49:28;;;;;;;23.02;17.58;;;12.20;1.00;;;;;;5069671;28;20465;-60
2023/02/18 09:51:56;;;;;;;22.70;18.33;;;12.30;1.00;;;;;;5071707;28;20032;-61
2023/02/18 09:54:22;;;;;;;21.23;16.25;;;12.20;1.00;;;;;;5071395;28;20108;-61
2023/02/18 09:56:48;;;;;;;23.90;16.48;;;12.30;1.00;;;;;;5071574;28;20021;-61
2023/02/18 09:59:19;;;;;;;23.58;16.15;;;12.30;1.00;;;;;;5071927;28;20452;-63
2023/02/18 10:01:47;;;;;;;19.50;16.20;;;12.20;1.00;;;;;;5071412;28;20475;-71
2023/02/18 10:04:18;;;;;;;21.48;15.25;;;12.30;1.00;;;;;;5070537;28;20445;-65
2023/02/18 10:06:46;;;;;;;18.30;14.70;;;12.40;1.00;;;;;;5069739;28;20450;-63
2023/02/18 10:09:38;;;;;;;17.38;14.38;;;12.40;1.00;;;;;;5071582;28;20027;-63
2023/02/18 10:12:14;;;;;;;17.60;13.82;;;12.40;1.00;;;;;;5060672;28;20185;-61
2023/02/18 10:14:59;;;;;;;22.27;14.57;;;12.50;1.00;;;;;;5068463;28;20043;-63
2023/02/18 10:17:28;;;;;;;17.67;13.45;;;12.60;1.00;;;;;;5071491;28;20466;-63
2023/02/18 10:19:55;;;;;;;16.65;14.18;;;12.60;1.00;;;;;;5071236;28;20028;-63
2023/02/18 10:22:23;;;;;;;16.05;13.45;;;12.70;1.00;;;;;;5064045;28;20413;-61
2023/02/18 10:24:58;;;;;;;17.40;15.13;;;12.70;1.00;;;;;;5071269;28;20474;-62
2023/02/18 10:27:33;;;;;;;16.20;13.63;;;12.70;1.00;;;;;;5071288;28;20061;-61
2023/02/18 10:30:15;;;;;;;15.40;12.88;;;12.70;1.00;;;;;;5071498;28;20028;-61
2023/02/18 10:33:15;;;;;;;15.65;13.50;;;12.70;1.00;;;;;;5071541;28;20021;-61
2023/02/18 10:35:53;;;;;;;17.08;13.77;;;12.70;1.00;;;;;;5058958;28;20373;-61
2023/02/18 10:38:30;;;;;;;18.42;15.27;;;12.80;1.00;;;;;;5071209;28;20109;-61
2023/02/18 10:41:26;;;;;;;17.98;14.65;;;12.90;1.00;;;;;;5071258;28;20056;-60
2023/02/18 10:43:56;;;;;;;20.02;16.13;;;12.90;1.00;;;;;;5073476;28;20020;-63
2023/02/18 10:46:42;;;;;;;17.83;15.07;;;12.90;1.00;;;;;;5073705;28;20028;-63
2023/02/18 10:49:16;;;;;;;21.05;14.38;;;13.00;1.00;;;;;;5111908;28;20043;-63
2023/02/18 10:51:49;;;;;;;18.38;14.68;;;13.10;1.00;;;;;;5096849;28;20028;-63
2023/02/18 10:54:14;;;;;;;19.52;15.00;;;13.10;1.00;;;;;;5101522;28;20023;-63
2023/02/18 10:56:48;;;;;;;17.02;15.23;;;13.10;1.00;;;;;;5115420;28;20425;-63
2023/02/18 10:59:26;;;;;;;19.13;15.60;;;13.20;1.00;;;;;;5114159;28;20028;-62
2023/02/18 11:02:14;;;;;;;16.20;13.93;;;13.20;1.00;;;;;;5115329;28;20019;-59
2023/02/18 11:04:43;;;;;;;15.77;13.77;;;13.20;1.00;;;;;;5115598;28;20059;-59
2023/02/18 11:07:25;;;;;;;16.73;13.07;;;13.30;1.00;;;;;;5106169;28;20476;-59
2023/02/18 11:09:57;;;;;;;18.25;13.05;;;13.30;1.00;;;;;;5109585;28;20102;-59
2023/02/18 11:12:27;;;;;;;14.00;12.10;;;13.30;1.00;;;;;;5115300;28;20098;-59
2023/02/18 11:15:17;;;;;;;16.80;12.80;;;13.30;1.00;;;;;;5109166;28;20036;-58
2023/02/18 11:17:45;;;;;;;16.80;13.65;;;13.40;1.00;;;;;;5104223;28;20088;-60
2023/02/18 11:20:23;;;;;;;19.95;12.98;;;13.40;1.00;;;;;;5114900;28;20027;-60
2023/02/18 11:22:49;;;;;;;16.30;12.43;;;13.40;1.00;;;;;;5113769;28;20031;-60
2023/02/18 11:25:25;;;;;;;15.50;12.60;;;13.40;1.00;;;;;;5111308;28;20101;-59
2023/02/18 11:27:57;;;;;;;18.58;12.13;;;13.50;1.00;;;;;;5114973;28;20477;-60
2023/02/18 11:30:44;;;;;;;16.75;13.55;;;13.50;1.00;;;;;;5115251;28;20024;-59
2023/02/18 11:33:23;;;;;;;16.50;11.93;;;13.60;1.00;;;;;;5114179;28;20035;-59
2023/02/18 11:35:57;;;;;;;17.13;13.40;;;13.80;1.00;;;;;;5114367;28;20027;-56
2023/02/18 11:38:40;;;;;;;16.95;14.27;;;13.90;1.00;;;;;;5108229;27;20068;-58
2023/02/18 11:41:12;;;;;;;16.73;14.27;;;13.90;1.00;;;;;;5114396;28;20030;-57
2023/02/18 11:43:45;;;;;;;21.10;15.57;;;13.80;1.00;;;;;;5111612;28;20023;-56
2023/02/18 11:46:21;;;;;;;16.92;14.38;;;13.80;1.00;;;;;;5113505;28;20062;-57
2023/02/18 11:48:48;;;;;;;20.83;15.60;;;13.80;1.00;;;;;;5114185;28;20051;-57
2023/02/18 11:51:26;;;;;;;16.73;13.40;;;13.80;1.00;;;;;;5114011;28;20465;-57
2023/02/18 11:54:03;;;;;;;19.00;14.75;;;13.90;1.00;;;;;;5106692;28;20036;-57
2023/02/18 11:56:34;;;;;;;20.05;14.65;;;14.00;1.00;;;;;;5099656;28;20423;-58
2023/02/18 11:59:02;;;;;;;20.33;15.07;;;14.10;1.00;;;;;;5109811;28;20027;-57
2023/02/18 12:01:44;;;;;;;16.45;13.45;;;14.10;1.00;;;;;;5101791;28;20058;-58
2023/02/18 12:04:16;;;;;;;16.60;13.20;;;14.20;1.00;;;;;;5114323;28;20152;-57
2023/02/18 12:07:03;;;;;;;16.42;13.35;;;14.30;1.00;;;;;;5114133;28;20419;-57
2023/02/18 12:09:43;;;;;;;15.00;12.43;;;14.30;1.00;;;;;;5113822;28;20055;-58
2023/02/18 12:12:26;;;;;;;14.75;12.73;;;14.40;1.00;;;;;;5113927;28;20398;-57
2023/02/18 12:14:54;;;;;;;15.38;11.93;;;14.40;1.00;;;;;;5114104;28;20063;-58
2023/02/18 12:17:35;;;;;;;14.85;11.65;;;14.50;1.00;;;;;;5113575;28;20019;-57
2023/02/18 12:20:13;;;;;;;12.98;11.30;;;14.60;1.00;;;;;;5112228;28;20400;-59
2023/02/18 12:22:51;;;;;;;13.27;11.25;;;14.70;1.00;;;;;;5101089;28;20346;-58
2023/02/18 12:25:38;;;;;;;14.52;12.77;;;14.70;1.00;;;;;;5113716;28;20028;-58
2023/02/18 12:28:03;;;;;;;13.95;12.18;;;14.90;1.00;;;;;;5113588;28;20178;-57
2023/02/18 12:31:06;;;;;;;12.48;11.20;;;14.90;1.00;;;;;;5113626;28;20135;-57
2023/02/18 12:34:04;;;;;;;12.80;11.10;;;15.00;1.00;;;;;;5112897;28;20185;-58
2023/02/18 12:37:07;;;;;;;15.02;11.93;;;15.20;1.00;;;;;;5098051;28;20503;-58
2023/02/18 12:39:55;;;;;;;13.30;10.00;;;15.20;1.00;;;;;;5105851;28;20103;-59
2023/02/18 12:42:35;;;;;;;10.30;7.75;;;15.40;1.00;;;;;;5107501;28;20031;-58
2023/02/18 12:45:06;;;;;;;9.85;8.07;;;15.50;1.00;;;;;;5113217;28;20118;-58
2023/02/18 12:47:42;;;;;;;11.52;8.30;;;15.40;1.00;;;;;;5109272;28;20138;-57
2023/02/18 12:50:27;;;;;;;9.02;8.10;;;15.50;1.00;;;;;;5102841;28;20110;-58
2023/02/18 12:52:58;;;;;;;11.02;8.40;;;15.40;1.00;;;;;;5112541;28;20031;-57
2023/02/18 12:55:31;;;;;;;9.52;8.43;;;15.50;1.00;;;;;;5113143;28;20035;-58
2023/02/18 12:58:31;;;;;;;8.88;7.97;;;15.50;1.00;;;;;;5112694;27;20026;-56
2023/02/18 13:01:04;;;;;;;8.40;7.47;;;15.50;1.00;;;;;;5112726;28;20061;-56
2023/02/18 13:03:48;;;;;;;9.10;7.65;;;15.60;1.00;;;;;;5112606;28;20099;-57
2023/02/18 13:06:36;;;;;;;9.50;7.80;;;15.50;1.00;;;;;;5111835;28;20423;-57
2023/02/18 13:09:16;;;;;;;9.23;8.20;;;15.50;1.00;;;;;;5100359;28;20031;-56
2023/02/18 13:12:09;;;;;;;10.20;8.30;;;15.50;1.00;;;;;;5111186;28;20376;-55
2023/02/18 13:14:48;;;;;;;11.20;8.23;;;15.60;1.00;;;;;;5112752;28;20032;-57
2023/02/18 13:17:16;;;;;;;10.55;8.10;;;15.60;1.00;;;;;;5111008;28;20102;-56
2023/02/18 13:20:00;;;;;;;9.88;8.15;;;15.70;1.00;;;;;;5112407;28;20024;-56
2023/02/18 13:22:28;;;;;;;8.43;7.53;;;15.60;1.00;;;;;;5112125;28;20494;-56
2023/02/18 13:24:56;;;;;;;9.77;7.88;;;15.60;1.00;;;;;;5112224;28;20035;-55
2023/02/18 13:27:43;;;;;;;10.65;7.93;;;15.70;1.00;;;;;;5112304;28;20023;-56
2023/02/18 13:30:33;;;;;;;9.80;7.90;;;15.70;1.00;;;;;;5112623;28;20161;-55